Time;durP1;ratioP1;P1;durP2;ratioP2;P2;SDS_P1;SDS_P2;PMS_P1;PMS_P2;Temp;Humidity;BMP_temperature;BMP_pressure;BME280_temperature;BME280_humidity;BME280_pressure;Samples;Min_cycle;Max_cycle;Signal;HPM_P1;HPM_P2
2023/12/17 00:00:59;;;;;;;;;74.50;56.75;;;;;7.91;72.15;103375.06;4988816;27;44818;-80
2023/12/17 00:03:26;;;;;;;;;69.50;55.00;;;;;7.93;72.55;103377.72;4990151;28;45577;-83
2023/12/17 00:05:52;;;;;;;;;64.75;53.75;;;;;7.88;72.44;103375.09;4975582;28;45329;-80
2023/12/17 00:08:19;;;;;;;;;66.75;54.25;;;;;7.85;72.41;103367.16;4975035;28;45923;-81
2023/12/17 00:10:45;;;;;;;;;68.50;53.50;;;;;7.83;72.61;103362.72;4975647;28;45382;-81
2023/12/17 00:13:11;;;;;;;;;67.75;54.00;;;;;7.82;71.94;103374.22;4975618;28;45537;-81
2023/12/17 00:15:36;;;;;;;;;67.50;54.50;;;;;7.69;72.33;103368.91;4975303;28;45345;-81
2023/12/17 00:18:01;;;;;;;;;68.25;54.00;;;;;7.66;71.87;103374.19;4975109;28;46554;-80
2023/12/17 00:20:26;;;;;;;;;71.75;57.25;;;;;7.68;72.68;103380.41;4974258;28;45540;-81
2023/12/17 00:22:52;;;;;;;;;69.00;54.00;;;;;7.63;71.71;103376.84;4974469;28;48436;-82
2023/12/17 00:25:17;;;;;;;;;69.00;52.00;;;;;7.68;71.79;103385.69;4976096;28;46083;-84
2023/12/17 00:27:42;;;;;;;;;67.25;50.75;;;;;7.67;71.30;103390.97;4977081;28;45402;-85
2023/12/17 00:30:08;;;;;;;;;63.00;52.50;;;;;7.57;72.10;103378.63;4976442;28;45281;-92
2023/12/17 00:32:33;;;;;;;;;66.25;53.00;;;;;7.60;72.06;103384.78;4975963;28;45422;-88
2023/12/17 00:34:59;;;;;;;;;63.25;51.25;;;;;7.58;72.58;103401.56;4974386;28;50412;-81
2023/12/17 00:37:24;;;;;;;;;66.25;53.50;;;;;7.62;71.93;103398.03;4973523;28;54767;-81
2023/12/17 00:39:49;;;;;;;;;61.50;46.00;;;;;7.64;71.51;103401.56;4973543;28;45351;-80
2023/12/17 00:42:15;;;;;;;;;64.50;48.75;;;;;7.54;71.13;103379.47;4975813;28;45291;-81
2023/12/17 00:44:40;;;;;;;;;60.75;51.00;;;;;7.61;71.54;103388.31;4976684;28;45821;-81
2023/12/17 00:47:05;;;;;;;;;65.25;50.50;;;;;7.60;71.38;103365.38;4976404;28;45378;-80
2023/12/17 00:49:31;;;;;;;;;63.75;50.75;;;;;7.65;71.38;103385.66;4978741;28;45394;-80
2023/12/17 00:51:56;;;;;;;;;62.25;50.25;;;;;7.68;71.30;103393.66;4977895;28;45492;-81
2023/12/17 00:54:21;;;;;;;;;62.50;50.25;;;;;7.66;70.81;103392.72;4976593;28;45464;-82
2023/12/17 00:56:47;;;;;;;;;60.50;50.75;;;;;7.55;71.17;103381.28;4976959;28;45488;-82
2023/12/17 00:59:12;;;;;;;;;63.75;51.75;;;;;7.62;71.00;103413.94;4977783;28;45411;-82
2023/12/17 01:01:38;;;;;;;;;66.75;53.00;;;;;7.47;71.78;103414.78;4977695;28;45314;-82
2023/12/17 01:04:04;;;;;;;;;62.25;50.75;;;;;7.36;72.74;103417.41;4975295;28;46767;-84
2023/12/17 01:06:29;;;;;;;;;65.00;51.25;;;;;7.27;72.57;103413.84;4976560;28;45384;-81
2023/12/17 01:08:54;;;;;;;;;61.25;50.75;;;;;7.25;72.73;103429.72;4975731;28;60953;-82
2023/12/17 01:11:20;;;;;;;;;62.00;51.00;;;;;7.20;73.37;103420.91;4991382;28;56625;-83
2023/12/17 01:13:45;;;;;;;;;66.00;52.50;;;;;7.12;72.87;103411.16;4976337;28;52877;-81
2023/12/17 01:16:10;;;;;;;;;60.75;50.25;;;;;7.25;72.95;103428.84;4978155;28;45329;-80
2023/12/17 01:18:36;;;;;;;;;65.00;52.00;;;;;7.22;72.98;103440.31;4977004;28;45298;-81
2023/12/17 01:21:01;;;;;;;;;64.50;50.50;;;;;7.30;72.37;103427.13;4976897;28;46770;-82
2023/12/17 01:23:27;;;;;;;;;55.75;46.50;;;;;7.26;72.30;103425.31;4976080;28;45520;-81
2023/12/17 01:25:52;;;;;;;;;56.50;48.00;;;;;7.27;72.36;103421.78;4993315;28;45499;-82
2023/12/17 01:28:17;;;;;;;;;56.50;47.75;;;;;7.27;72.51;103416.50;4997650;28;45318;-80
2023/12/17 01:30:43;;;;;;;;;60.75;47.00;;;;;7.28;72.54;103423.56;4998751;28;52367;-81
2023/12/17 01:33:08;;;;;;;;;62.50;52.25;;;;;7.28;72.11;103426.19;4977335;27;45481;-83
2023/12/17 01:35:33;;;;;;;;;61.50;47.75;;;;;7.31;72.13;103423.59;4976405;28;53379;-85
2023/12/17 01:37:59;;;;;;;;;53.75;44.00;;;;;7.33;72.30;103419.19;4977310;28;58719;-83
2023/12/17 01:40:24;;;;;;;;;61.00;51.00;;;;;7.25;72.19;103411.19;4976541;28;46227;-81
2023/12/17 01:42:52;;;;;;;;;53.75;44.00;;;;;7.33;72.56;103416.53;4976267;28;46083;-82
2023/12/17 01:45:18;;;;;;;;;58.25;46.25;;;;;7.38;72.40;103422.72;4985483;28;45894;-81
2023/12/17 01:47:44;;;;;;;;;66.00;50.25;;;;;7.47;71.95;103414.78;4976295;28;45234;-81
2023/12/17 01:50:10;;;;;;;;;60.25;46.75;;;;;7.48;71.94;103413.91;4990594;28;45468;-81
2023/12/17 01:52:36;;;;;;;;;60.75;48.75;;;;;7.49;72.13;103405.06;4979529;28;46125;-81
2023/12/17 01:55:03;;;;;;;;;62.50;50.75;;;;;7.44;72.33;103406.84;4990781;28;45394;-81
2023/12/17 01:57:29;;;;;;;;;62.00;50.00;;;;;7.37;71.04;103391.81;4975769;28;45340;-83
2023/12/17 01:59:54;;;;;;;;;58.25;46.75;;;;;7.53;71.56;103414.78;4976619;28;45442;-82
2023/12/17 02:02:19;;;;;;;;;59.50;45.75;;;;;7.45;71.19;103405.97;4978904;28;45648;-82
2023/12/17 02:04:46;;;;;;;;;61.00;47.50;;;;;7.45;71.04;103411.25;4977902;28;46249;-84
2023/12/17 02:07:11;;;;;;;;;61.75;46.25;;;;;7.31;71.06;103386.53;4979071;28;45303;-84
2023/12/17 02:09:37;;;;;;;;;57.25;48.00;;;;;7.41;70.98;103409.47;4979388;28;45644;-89
2023/12/17 02:12:02;;;;;;;;;53.00;42.00;;;;;7.30;71.41;103390.94;4980236;28;45361;-89
2023/12/17 02:14:28;;;;;;;;;55.50;45.00;;;;;7.36;70.96;103409.47;4983683;28;45523;-90
2023/12/17 02:16:53;;;;;;;;;50.75;43.25;;;;;7.32;71.33;103414.75;5000154;27;45352;-82
2023/12/17 02:19:18;;;;;;;;;53.75;46.00;;;;;7.26;71.25;103398.84;4996269;27;45436;-81
2023/12/17 02:21:44;;;;;;;;;57.75;48.50;;;;;7.23;71.49;103393.56;4995712;27;66131;-82
2023/12/17 02:24:09;;;;;;;;;56.50;43.50;;;;;7.13;71.39;103392.63;4995664;28;45222;-81
2023/12/17 02:26:35;;;;;;;;;41.75;36.00;;;;;7.00;71.77;103391.72;4996271;28;45699;-84
2023/12/17 02:29:00;;;;;;;;;53.00;45.25;;;;;6.93;71.54;103384.66;4987552;28;45598;-84
2023/12/17 02:31:25;;;;;;;;;48.75;42.50;;;;;6.89;71.99;103377.56;4978183;28;66927;-82
2023/12/17 02:33:51;;;;;;;;;52.25;45.25;;;;;6.93;71.93;103381.13;4976623;28;45452;-82
2023/12/17 02:36:16;;;;;;;;;57.50;45.00;;;;;6.89;72.12;103380.19;4976127;28;68488;-81
2023/12/17 02:38:41;;;;;;;;;47.00;43.00;;;;;6.87;71.99;103374.03;4976972;28;45555;-80
2023/12/17 02:41:07;;;;;;;;;57.00;44.25;;;;;6.74;72.31;103357.22;4975994;28;46266;-81
2023/12/17 02:43:32;;;;;;;;;56.75;44.00;;;;;6.92;72.63;103361.72;4986016;28;45420;-80
2023/12/17 02:45:57;;;;;;;;;54.75;44.00;;;;;6.83;71.66;103350.22;4975998;28;45384;-81
2023/12/17 02:48:22;;;;;;;;;58.75;46.50;;;;;6.87;72.34;103363.44;4976747;28;45633;-81
2023/12/17 02:50:48;;;;;;;;;53.00;43.75;;;;;6.76;72.39;103341.34;4974754;28;69214;-82
2023/12/17 02:53:13;;;;;;;;;59.00;45.50;;;;;6.96;72.17;103360.84;4975329;28;45427;-85
2023/12/17 02:55:38;;;;;;;;;51.25;42.00;;;;;7.02;71.65;103357.31;4975726;28;46753;-84
2023/12/17 02:58:04;;;;;;;;;55.25;45.25;;;;;6.97;71.45;103344.09;4974988;28;56017;-84
2023/12/17 03:00:29;;;;;;;;;49.50;42.25;;;;;7.07;71.62;103348.53;4974201;27;47906;-82
2023/12/17 03:02:55;;;;;;;;;56.00;46.25;;;;;7.09;71.24;103332.66;4975903;28;60070;-83
2023/12/17 03:05:21;;;;;;;;;52.50;41.75;;;;;7.08;71.27;103334.41;4975831;28;45361;-81
2023/12/17 03:07:46;;;;;;;;;57.50;46.75;;;;;7.13;70.79;103328.25;4976323;28;45446;-83
2023/12/17 03:10:11;;;;;;;;;52.75;41.75;;;;;6.92;70.04;103318.50;4976144;28;68022;-82
2023/12/17 03:12:37;;;;;;;;;50.75;43.00;;;;;6.69;71.14;103321.06;4975449;28;45263;-82
2023/12/17 03:15:02;;;;;;;;;47.25;42.25;;;;;6.61;70.94;103322.78;4974438;28;68621;-85
2023/12/17 03:17:28;;;;;;;;;51.00;41.75;;;;;6.61;71.28;103309.56;4975307;28;45292;-80
2023/12/17 03:19:53;;;;;;;;;47.00;40.50;;;;;6.47;71.65;103306.88;4975090;28;48833;-82
2023/12/17 03:22:19;;;;;;;;;47.00;41.50;;;;;6.34;71.18;103303.28;4976166;28;45206;-81
2023/12/17 03:24:44;;;;;;;;;49.25;40.25;;;;;6.34;71.63;103310.34;4975651;28;45215;-81
2023/12/17 03:27:10;;;;;;;;;49.25;42.00;;;;;6.36;71.92;103316.50;4976109;28;45667;-82
2023/12/17 03:29:35;;;;;;;;;44.00;39.00;;;;;6.39;71.28;103320.06;4975866;28;46373;-81
2023/12/17 03:32:02;;;;;;;;;48.00;42.00;;;;;6.34;71.31;103305.06;4977950;28;45717;-82
2023/12/17 03:34:27;;;;;;;;;46.75;39.00;;;;;6.24;72.92;103309.41;4980266;28;45320;-82
2023/12/17 03:36:53;;;;;;;;;43.75;37.25;;;;;6.17;72.06;103302.34;4986418;28;45591;-81
2023/12/17 03:39:19;;;;;;;;;48.50;42.00;;;;;6.04;72.71;103287.28;4998631;28;55384;-85
2023/12/17 03:41:44;;;;;;;;;48.25;40.00;;;;;6.15;72.22;103296.16;4984352;28;45397;-86
2023/12/17 03:44:10;;;;;;;;;44.50;37.50;;;;;6.28;72.06;103302.41;4978358;28;45277;-88
2023/12/17 03:46:35;;;;;;;;;48.00;40.50;;;;;6.26;71.53;103297.09;4979060;28;45459;-85
2023/12/17 03:49:00;;;;;;;;;37.50;36.50;;;;;6.22;71.96;103297.94;4976958;28;46033;-86
2023/12/17 03:51:26;;;;;;;;;45.00;38.25;;;;;6.16;71.90;103279.44;4976692;28;45392;-86
2023/12/17 03:53:51;;;;;;;;;36.50;36.50;;;;;6.16;71.86;103293.53;4978742;28;45338;-90
2023/12/17 03:56:17;;;;;;;;;41.25;38.00;;;;;6.07;72.46;103276.72;4977368;28;45165;-84
2023/12/17 03:58:43;;;;;;;;;38.75;36.50;;;;;6.11;71.94;103289.06;4980670;28;45938;-87
2023/12/17 04:01:09;;;;;;;;;40.25;38.50;;;;;6.12;71.40;103286.47;4980075;28;45377;-86
2023/12/17 04:03:35;;;;;;;;;45.00;36.50;;;;;6.13;71.91;103282.06;4977355;28;45693;-81
2023/12/17 04:06:05;;;;;;;;;38.50;34.75;;;;;6.15;71.50;103280.31;4975934;28;45230;-82
2023/12/17 04:08:30;;;;;;;;;42.50;34.25;;;;;6.03;71.23;103275.84;4974037;28;46216;-81
2023/12/17 04:10:55;;;;;;;;;35.50;35.25;;;;;5.99;71.16;103283.72;4974340;28;45294;-88
2023/12/17 04:13:21;;;;;;;;;37.25;32.75;;;;;5.86;71.01;103267.78;4974031;28;45631;-81
2023/12/17 04:15:46;;;;;;;;;37.50;35.00;;;;;5.85;72.25;103279.19;4974302;28;45384;-82
2023/12/17 04:18:11;;;;;;;;;44.00;36.00;;;;;5.75;71.20;103269.47;4980133;28;47272;-81
2023/12/17 04:20:37;;;;;;;;;31.75;29.75;;;;;5.67;72.27;103265.00;4979084;28;45294;-82
2023/12/17 04:23:03;;;;;;;;;43.00;40.25;;;;;5.55;72.88;103269.31;4992687;28;45374;-81
2023/12/17 04:25:29;;;;;;;;;33.75;30.00;;;;;5.29;73.35;103258.56;4978205;28;45532;-81
2023/12/17 04:27:54;;;;;;;;;37.00;33.00;;;;;5.23;73.50;103265.56;4977826;28;66870;-81
2023/12/17 04:30:20;;;;;;;;;31.00;31.00;;;;;5.07;73.61;103260.97;4979808;28;45693;-83
2023/12/17 04:32:48;;;;;;;;;34.75;32.50;;;;;4.93;74.25;103268.75;4977287;28;46835;-81
2023/12/17 04:35:14;;;;;;;;;39.50;34.50;;;;;4.89;73.92;103283.69;4977234;28;45603;-84
2023/12/17 04:37:42;;;;;;;;;35.50;31.00;;;;;4.85;74.74;103281.00;4977628;28;46184;-79
2023/12/17 04:40:11;;;;;;;;;26.75;22.75;;;;;4.78;74.80;103271.25;4977491;28;45357;-81
2023/12/17 04:42:36;;;;;;;;;34.25;31.75;;;;;4.67;75.32;103271.13;4979207;28;45350;-80
2023/12/17 04:45:02;;;;;;;;;32.25;28.00;;;;;4.64;76.05;103274.63;4979550;28;45617;-86
2023/12/17 04:47:28;;;;;;;;;32.75;30.75;;;;;4.68;75.68;103275.53;4997281;28;45294;-81
2023/12/17 04:49:53;;;;;;;;;29.25;26.50;;;;;4.66;75.12;103269.34;5000444;27;58215;-82
2023/12/17 04:52:18;;;;;;;;;34.50;28.00;;;;;4.63;75.74;103270.22;4996173;28;49566;-82
2023/12/17 04:54:44;;;;;;;;;31.00;29.25;;;;;4.62;75.36;103257.91;4995969;28;53790;-82
2023/12/17 04:57:09;;;;;;;;;32.25;30.00;;;;;4.77;74.83;103266.84;4996070;28;58777;-84
2023/12/17 04:59:34;;;;;;;;;20.75;20.75;;;;;4.87;74.97;103271.34;4995317;28;45589;-86
2023/12/17 05:02:00;;;;;;;;;30.75;26.25;;;;;4.91;74.82;103262.59;4997271;28;45321;-83
2023/12/17 05:04:25;;;;;;;;;28.25;25.75;;;;;4.96;74.66;103256.50;4998183;28;45302;-83
2023/12/17 05:06:50;;;;;;;;;34.75;30.25;;;;;5.03;73.69;103255.69;4998524;28;45314;-85
2023/12/17 05:09:16;;;;;;;;;33.50;29.50;;;;;5.07;73.39;103264.50;4997841;27;47567;-88
2023/12/17 05:11:41;;;;;;;;;26.25;26.00;;;;;4.97;74.00;103249.47;4996620;28;45282;-83
2023/12/17 05:14:06;;;;;;;;;27.75;22.00;;;;;5.00;74.31;103260.06;4982970;28;45498;-84
2023/12/17 05:16:31;;;;;;;;;23.00;21.25;;;;;5.02;74.08;103264.47;4978887;28;45507;-87
2023/12/17 05:18:57;;;;;;;;;29.50;23.50;;;;;5.03;73.12;103265.34;4993805;28;57032;-83
2023/12/17 05:21:22;;;;;;;;;26.50;25.50;;;;;5.02;73.84;103258.31;4977209;28;45403;-87
2023/12/17 05:23:48;;;;;;;;;24.00;23.75;;;;;5.10;73.12;103272.47;4980595;28;45576;-86
2023/12/17 05:26:13;;;;;;;;;21.75;17.00;;;;;5.11;73.79;103268.97;4990966;28;46022;-86
2023/12/17 05:28:41;;;;;;;;;29.50;26.00;;;;;5.03;73.12;103260.06;4984583;28;54252;-86
2023/12/17 05:31:06;;;;;;;;;31.25;26.50;;;;;5.10;73.00;103279.50;4981826;28;45401;-88
2023/12/17 05:33:32;;;;;;;;;24.75;24.75;;;;;5.00;73.05;103278.50;4980811;28;45416;-88
2023/12/17 05:35:57;;;;;;;;;32.00;22.00;;;;;4.95;74.01;103282.88;4983175;28;46000;-87
2023/12/17 05:38:22;;;;;;;;;23.50;20.00;;;;;4.91;74.28;103276.66;4979289;28;53739;-87
2023/12/17 05:40:47;;;;;;;;;35.25;25.25;;;;;4.96;74.34;103284.63;4980256;28;45508;-86
2023/12/17 05:43:13;;;;;;;;;32.25;21.25;;;;;5.01;73.58;103283.81;4979091;28;59370;-89
2023/12/17 05:45:39;;;;;;;;;25.75;21.75;;;;;5.09;73.13;103290.91;4977837;28;47074;-91
2023/12/17 05:48:04;;;;;;;;;30.00;27.00;;;;;5.08;73.64;103289.13;4977094;28;45435;-83
2023/12/17 05:50:29;;;;;;;;;24.25;24.25;;;;;5.09;73.57;103277.72;4989020;28;45539;-83
2023/12/17 05:52:55;;;;;;;;;20.50;19.75;;;;;5.04;73.65;103269.75;4992849;28;45504;-81
2023/12/17 05:55:20;;;;;;;;;27.25;25.25;;;;;5.10;73.63;103284.78;4975333;28;46045;-82
2023/12/17 05:57:49;;;;;;;;;32.75;22.00;;;;;5.09;73.40;103275.97;4975967;28;45350;-87
2023/12/17 06:00:16;;;;;;;;;22.50;20.50;;;;;4.97;72.96;103279.38;4976580;28;45403;-83
2023/12/17 06:02:41;;;;;;;;;23.00;22.00;;;;;4.88;73.06;103278.38;4975938;28;45644;-82
2023/12/17 06:05:07;;;;;;;;;27.50;25.50;;;;;4.81;74.60;103284.44;4974336;28;46160;-81
2023/12/17 06:07:32;;;;;;;;;25.25;21.00;;;;;4.83;73.89;103278.34;4975475;28;45335;-81
2023/12/17 06:09:58;;;;;;;;;25.25;22.00;;;;;4.68;73.69;103265.88;4976612;28;57100;-82
2023/12/17 06:12:23;;;;;;;;;28.50;20.25;;;;;4.77;74.82;103277.38;4976144;28;45423;-82
2023/12/17 06:14:49;;;;;;;;;33.50;24.50;;;;;4.76;73.94;103280.91;4975630;28;69126;-81
2023/12/17 06:17:14;;;;;;;;;6.75;2.50;;;;;4.67;74.61;103279.91;4976379;28;45504;-80
2023/12/17 06:19:40;;;;;;;;;21.00;19.75;;;;;4.63;74.88;103288.66;4976777;28;45354;-81
2023/12/17 06:22:05;;;;;;;;;33.00;24.50;;;;;4.61;74.18;103281.63;4976226;28;45375;-83
2023/12/17 06:24:31;;;;;;;;;24.25;19.75;;;;;4.58;74.29;103271.94;4977485;28;46155;-80
2023/12/17 06:26:56;;;;;;;;;25.00;23.00;;;;;4.64;74.60;103285.16;4976241;28;45339;-82
2023/12/17 06:29:21;;;;;;;;;37.50;30.00;;;;;4.52;74.66;103276.22;4980835;28;61954;-84
2023/12/17 06:31:47;;;;;;;;;23.25;20.25;;;;;4.56;75.00;103284.19;4977484;28;57861;-81
2023/12/17 06:34:13;;;;;;;;;26.00;22.75;;;;;4.58;74.41;103273.69;4977092;28;46206;-85
2023/12/17 06:36:38;;;;;;;;;24.75;21.00;;;;;4.68;74.25;103273.78;4988779;28;45573;-84
2023/12/17 06:39:08;;;;;;;;;25.50;23.00;;;;;4.63;73.64;103280.75;5012561;28;45279;-83
2023/12/17 06:41:33;;;;;;;;;23.00;19.50;;;;;4.56;74.79;103286.84;4998132;28;45463;-82
2023/12/17 06:43:59;;;;;;;;;28.50;24.00;;;;;4.60;74.73;103288.63;4996899;28;45414;-85
2023/12/17 06:46:24;;;;;;;;;25.50;21.00;;;;;4.60;74.27;103286.00;4996287;28;44751;-82
2023/12/17 06:48:50;;;;;;;;;25.25;21.50;;;;;4.60;75.17;103288.63;4983311;28;45276;-85
2023/12/17 06:51:15;;;;;;;;;21.25;19.50;;;;;4.51;74.81;103291.16;4975895;28;45409;-84
2023/12/17 06:53:40;;;;;;;;;29.50;26.25;;;;;4.54;74.26;103285.03;4977712;28;45378;-84
2023/12/17 06:56:06;;;;;;;;;28.75;21.25;;;;;4.53;74.41;103289.41;4976676;28;55815;-79
2023/12/17 06:58:33;;;;;;;;;28.50;23.75;;;;;4.52;75.39;103279.75;4994032;27;45363;-81
2023/12/17 07:00:59;;;;;;;;;27.75;27.00;;;;;4.54;75.13;103280.63;4977896;28;45472;-81
2023/12/17 07:03:24;;;;;;;;;25.00;22.75;;;;;4.56;75.30;103281.56;4977400;28;45291;-80
2023/12/17 07:05:50;;;;;;;;;25.50;24.00;;;;;4.63;74.74;103288.66;4976836;28;45419;-82
2023/12/17 07:08:15;;;;;;;;;25.25;24.00;;;;;4.64;74.30;103293.06;4975782;28;45414;-83
2023/12/17 07:10:41;;;;;;;;;28.75;26.00;;;;;4.67;74.45;103287.81;4977826;28;45169;-80
2023/12/17 07:13:06;;;;;;;;;25.25;20.25;;;;;4.73;74.99;103285.28;4991980;27;48203;-88
2023/12/17 07:15:32;;;;;;;;;30.00;23.50;;;;;4.68;75.03;103271.13;5026660;27;45435;-85
2023/12/17 07:18:00;;;;;;;;;26.50;23.50;;;;;4.79;74.72;103288.81;5006894;27;45377;-87
2023/12/17 07:20:27;;;;;;;;;30.25;28.25;;;;;4.57;74.49;103259.63;5032595;27;45453;-82
2023/12/17 07:22:53;;;;;;;;;36.00;25.75;;;;;4.61;74.71;103266.69;5006400;28;46259;-84
2023/12/17 07:25:20;;;;;;;;;26.00;25.00;;;;;4.76;75.12;103280.91;5090656;27;44687;-83
2023/12/17 07:27:45;;;;;;;;;25.75;22.50;;;;;4.72;74.87;103285.25;5025289;27;45209;-83
2023/12/17 07:30:11;;;;;;;;;23.50;22.00;;;;;4.67;75.14;103269.38;5017392;28;45589;-86
2023/12/17 07:32:40;;;;;;;;;25.00;19.25;;;;;4.68;75.29;103279.03;5029222;28;45586;-82
2023/12/17 07:35:07;;;;;;;;;25.25;23.75;;;;;4.66;75.26;103267.59;5080252;27;45499;-83
2023/12/17 07:37:32;;;;;;;;;26.50;24.50;;;;;4.80;75.26;103277.41;5034500;27;45205;-81
2023/12/17 07:39:58;;;;;;;;;28.25;23.75;;;;;4.80;74.42;103272.13;5022737;27;45310;-80
2023/12/17 07:42:23;;;;;;;;;29.50;25.25;;;;;4.79;74.75;103273.00;5034482;27;45320;-81
2023/12/17 07:44:49;;;;;;;;;27.25;25.00;;;;;4.60;74.57;103238.56;5068774;27;45320;-83
2023/12/17 07:47:14;;;;;;;;;23.25;22.50;;;;;4.76;74.93;103267.72;5026365;27;45284;-85
2023/12/17 07:49:40;;;;;;;;;27.00;25.00;;;;;4.73;74.48;103273.84;5007985;27;45224;-82
2023/12/17 07:52:09;;;;;;;;;33.00;26.50;;;;;4.68;75.02;103267.63;5005051;28;45530;-83
2023/12/17 07:54:34;;;;;;;;;34.75;29.50;;;;;4.63;75.18;103266.69;5053885;27;45498;-81
2023/12/17 07:57:00;;;;;;;;;26.75;23.25;;;;;4.55;74.77;103266.59;5043458;27;45358;-80
2023/12/17 07:59:25;;;;;;;;;32.25;27.50;;;;;4.58;74.50;103277.19;5022367;27;45389;-80
2023/12/17 08:01:51;;;;;;;;;29.00;22.25;;;;;4.47;75.06;103267.38;5032611;27;45459;-83
2023/12/17 08:04:17;;;;;;;;;31.25;25.50;;;;;4.39;75.88;103280.47;5011861;27;45508;-87
2023/12/17 08:06:43;;;;;;;;;31.00;28.75;;;;;4.24;76.46;103248.66;5001930;28;45367;-84
2023/12/17 08:09:08;;;;;;;;;32.50;29.50;;;;;4.36;76.89;103275.16;5014572;28;45336;-82
2023/12/17 08:11:34;;;;;;;;;29.00;26.50;;;;;4.36;76.84;103270.78;5043028;27;47007;-84
2023/12/17 08:14:00;;;;;;;;;34.50;28.25;;;;;4.45;76.42;103270.00;5009269;27;45460;-82
2023/12/17 08:16:26;;;;;;;;;23.25;23.25;;;;;4.46;76.59;103265.63;4996991;28;45388;-82
2023/12/17 08:18:51;;;;;;;;;33.50;30.00;;;;;4.50;76.09;103260.41;5004957;28;45573;-81
2023/12/17 08:21:16;;;;;;;;;26.50;20.75;;;;;4.59;76.39;103278.97;4993042;28;46363;-84
2023/12/17 08:23:42;;;;;;;;;24.75;24.75;;;;;4.46;76.34;103258.59;5024291;27;45417;-83
2023/12/17 08:26:08;;;;;;;;;33.00;29.75;;;;;4.54;75.72;103279.75;5070284;27;45305;-87
2023/12/17 08:28:35;;;;;;;;;35.25;32.25;;;;;4.46;76.19;103266.50;4974779;28;45461;-85
2023/12/17 08:31:00;;;;;;;;;29.50;25.75;;;;;4.61;75.83;103282.50;5000919;28;45395;-86
2023/12/17 08:33:26;;;;;;;;;42.00;32.75;;;;;4.58;75.97;103277.19;5082705;27;45480;-87
2023/12/17 08:35:51;;;;;;;;;33.50;25.75;;;;;4.48;76.50;103264.78;5030030;27;45908;-85
2023/12/17 08:38:17;;;;;;;;;31.00;26.00;;;;;4.50;75.80;103273.56;4994612;27;46389;-86
2023/12/17 08:40:44;;;;;;;;;28.50;27.75;;;;;4.54;76.45;103272.72;5004659;27;46368;-85
2023/12/17 08:43:10;;;;;;;;;28.50;25.50;;;;;4.64;76.08;103269.34;4990309;27;45471;-85
2023/12/17 08:45:36;;;;;;;;;34.25;24.00;;;;;4.74;76.40;103273.84;5018439;27;45418;-86
2023/12/17 08:48:02;;;;;;;;;30.75;26.25;;;;;4.70;75.46;103261.53;5074152;27;45682;-82
2023/12/17 08:50:28;;;;;;;;;36.75;24.75;;;;;4.89;75.23;103269.59;5082911;27;46819;-81
2023/12/17 08:52:53;;;;;;;;;25.75;23.75;;;;;4.88;75.12;103252.91;4998052;28;45471;-79
2023/12/17 08:55:22;;;;;;;;;32.50;28.00;;;;;5.03;75.10;103260.06;4972947;28;45494;-79
2023/12/17 08:57:47;;;;;;;;;27.00;25.75;;;;;5.16;74.32;103261.97;5081269;27;45558;-80
2023/12/17 09:00:13;;;;;;;;;26.75;25.25;;;;;5.07;73.87;103261.88;4996257;28;46697;-82
2023/12/17 09:02:39;;;;;;;;;25.50;25.50;;;;;5.06;74.75;103259.22;5059325;27;45381;-89
2023/12/17 09:05:05;;;;;;;;;30.25;24.50;;;;;5.11;74.15;103266.31;4998578;27;45271;-82
2023/12/17 09:07:31;;;;;;;;;23.00;14.50;;;;;5.17;73.74;103269.00;4999672;27;45277;-85
2023/12/17 09:09:56;;;;;;;;;33.75;29.00;;;;;5.18;73.32;103265.50;5009492;28;45427;-84
2023/12/17 09:12:22;;;;;;;;;34.00;29.25;;;;;5.13;73.29;103256.66;5001854;28;45292;-88
2023/12/17 09:14:48;;;;;;;;;29.50;24.00;;;;;5.18;73.20;103243.50;4991524;28;45458;-88
2023/12/17 09:17:13;;;;;;;;;26.50;21.50;;;;;5.37;72.88;103260.38;5022910;28;44873;-83
2023/12/17 09:19:38;;;;;;;;;30.25;24.50;;;;;5.42;72.73;103253.38;5041631;27;45415;-80
2023/12/17 09:22:04;;;;;;;;;28.25;27.50;;;;;5.50;72.19;103251.69;5086050;27;45243;-84
2023/12/17 09:24:29;;;;;;;;;31.25;25.25;;;;;5.47;72.15;103251.66;5008312;28;45332;-89
2023/12/17 09:26:55;;;;;;;;;36.00;27.50;;;;;5.35;72.34;103248.94;5012117;27;45324;-85
2023/12/17 09:29:20;;;;;;;;;35.50;26.75;;;;;5.33;72.46;103241.88;5001962;28;45332;-82
2023/12/17 09:31:46;;;;;;;;;28.00;28.00;;;;;5.47;72.14;103262.19;5032118;27;45614;-81
2023/12/17 09:34:13;;;;;;;;;34.50;28.00;;;;;5.23;72.96;103233.88;4986861;28;45495;-79
2023/12/17 09:36:38;;;;;;;;;30.75;28.25;;;;;5.34;72.25;103266.53;5022333;27;45802;-86
2023/12/17 09:39:04;;;;;;;;;34.00;27.50;;;;;5.23;72.78;103261.16;5000489;27;46234;-81
2023/12/17 09:41:29;;;;;;;;;30.50;29.00;;;;;5.29;73.78;103260.31;5000081;28;45400;-84
2023/12/17 09:43:55;;;;;;;;;28.50;24.25;;;;;5.29;72.60;103255.91;4994325;28;45393;-81
2023/12/17 09:46:20;;;;;;;;;34.50;28.00;;;;;5.33;73.15;103267.38;4988509;28;45401;-80
2023/12/17 09:48:47;;;;;;;;;28.75;26.00;;;;;5.37;73.31;103276.22;5001632;27;46838;-84
2023/12/17 09:51:13;;;;;;;;;23.00;19.75;;;;;5.33;73.52;103265.63;4984978;28;45574;-82
2023/12/17 09:53:38;;;;;;;;;27.25;26.25;;;;;5.29;73.69;103266.47;4988096;28;47156;-80
2023/12/17 09:56:04;;;;;;;;;28.00;25.50;;;;;5.26;73.46;103250.63;4986736;28;45411;-79
2023/12/17 09:58:30;;;;;;;;;44.25;29.25;;;;;5.50;72.87;103278.09;5011872;28;45613;-80
2023/12/17 10:00:55;;;;;;;;;29.75;26.00;;;;;5.40;72.60;103256.00;5051321;27;45557;-79
2023/12/17 10:03:21;;;;;;;;;34.25;32.50;;;;;5.50;73.02;103259.63;4994092;28;45395;-82
2023/12/17 10:05:53;;;;;;;;;34.00;27.00;;;;;5.50;72.92;103260.50;5021496;27;45660;-78
2023/12/17 10:08:19;;;;;;;;;35.75;29.25;;;;;5.61;73.04;103256.19;4990549;27;45460;-80
2023/12/17 10:10:45;;;;;;;;;31.25;26.75;;;;;5.82;72.64;103258.06;4986917;28;45287;-81
2023/12/17 10:13:16;;;;;;;;;24.75;24.75;;;;;5.91;72.38;103258.16;4999603;27;45467;-81
2023/12/17 10:15:42;;;;;;;;;28.25;23.50;;;;;6.06;71.81;103232.69;5002179;28;46442;-82
2023/12/17 10:18:08;;;;;;;;;32.75;27.50;;;;;6.19;71.15;103250.38;5016747;27;45396;-82
2023/12/17 10:20:33;;;;;;;;;38.00;30.75;;;;;6.20;70.29;103237.16;4988765;28;63896;-83
2023/12/17 10:23:00;;;;;;;;;27.75;24.00;;;;;6.29;70.17;103241.63;4998669;27;45790;-84
2023/12/17 10:25:27;;;;;;;;;30.25;25.75;;;;;6.41;69.46;103244.31;5027740;27;45467;-81
2023/12/17 10:27:57;;;;;;;;;31.50;26.25;;;;;6.53;69.54;103239.94;4998937;28;47742;-81
2023/12/17 10:30:31;;;;;;;;;23.50;21.75;;;;;6.44;69.04;103220.50;4992552;28;45501;-82
2023/12/17 10:32:58;;;;;;;;;37.50;31.75;;;;;6.72;68.47;103241.75;4992852;28;45461;-80
2023/12/17 10:35:25;;;;;;;;;26.25;25.25;;;;;6.91;68.04;103238.25;5015466;27;45252;-82
2023/12/17 10:37:58;;;;;;;;;31.00;24.00;;;;;7.21;67.80;103239.16;4992339;28;46088;-82
2023/12/17 10:40:24;;;;;;;;;29.00;28.00;;;;;7.47;66.64;103218.84;4996906;28;45504;-82
2023/12/17 10:42:50;;;;;;;;;29.00;25.25;;;;;7.66;65.99;103209.97;5006182;27;45323;-85
2023/12/17 10:45:24;;;;;;;;;31.50;29.50;;;;;7.91;65.09;103215.22;5007148;27;44906;-82
2023/12/17 10:47:56;;;;;;;;;30.75;27.25;;;;;7.88;64.47;103183.44;4987474;27;46963;-84
2023/12/17 10:50:24;;;;;;;;;32.25;25.25;;;;;8.06;63.78;103193.06;4982893;28;45215;-80
2023/12/17 10:52:50;;;;;;;;;32.00;26.25;;;;;8.30;63.80;103182.34;5002175;28;45351;-82
2023/12/17 10:55:17;;;;;;;;;38.50;29.50;;;;;8.57;62.33;103176.03;5014865;28;45417;-88
2023/12/17 10:58:04;;;;;;;;;31.75;29.00;;;;;8.81;61.92;103190.91;5032255;27;46514;-80
2023/12/17 11:00:33;;;;;;;;;10.50;10.50;;;;;9.08;61.38;103177.41;5033428;27;45462;-83
2023/12/17 11:03:02;;;;;;;;;35.00;30.00;;;;;9.24;60.80;103153.38;5008604;28;45354;-85
2023/12/17 11:05:27;;;;;;;;;33.00;29.75;;;;;9.54;58.58;103157.50;5085519;27;45697;-84
2023/12/17 11:07:53;;;;;;;;;30.75;27.50;;;;;9.69;59.50;103152.03;4999890;28;45376;-84
2023/12/17 11:10:18;;;;;;;;;33.00;29.50;;;;;9.85;59.21;103158.91;5001351;28;45414;-85